Meteorological information in strange format.

METAR = LHBP 241700Z 21005KT CAVOK 19/04 Q1016 NOSIG

SHORT TAF = TAF TAF LHBP 242330Z 2423/2424 30008KT CAVOK BECMG 2506/2509 24010KT OVC030 TEMPO 2509/2515 24015G25KT 8000 -RA BKN013 OVC025 BECMG 2515/2518 30008KT CAVOK

LONG TAF = TAF TAF LHBP 241115Z 2412/2512 VRB04KT CAVOK BECMG 2501/2503 29009KT BECMG 2506/2508 29014G25KT SCT033 BECMG 2510/2512 CAVOK

STATION........ LHBP
OBSERVED....... Sun Mar 24, 18:00 CET
NOW............ Sun Mar 24, 18:18 CET
AGE............ 18 min ago
WIND........... SSW at 6 mph
VISIBILITY..... greater than 7 miles
CLOUDS......... clear skies
TEMP........... 66°F (19°C)
DEWPT.......... 39°F (4°C)
HUMIDITY....... 37%
BAROMETER...... 1016 hPa (30 in Hg)

Further information from LHBP station

Request meteor information from:        station.    

 

www.tothgeza.hu

 

Magyar változat
Copyright © 2003-2019 Tóth Géza Minden jog fenntartva.